Time;durP1;ratioP1;P1;durP2;ratioP2;P2;SDS_P1;SDS_P2;PMS_P1;PMS_P2;Temp;Humidity;BMP_temperature;BMP_pressure;BME280_temperature;BME280_humidity;BME280_pressure;Samples;Min_cycle;Max_cycle;Signal;HPM_P1;HPM_P2
2021/12/04 00:00:05;;;;;;;283.40;253.07;;;;;;;;;;5007558;28;20026;-73
2021/12/04 00:02:32;;;;;;;304.80;273.67;;;;;;;;;;5003494;28;20026;-72
2021/12/04 00:05:00;;;;;;;303.48;272.77;;;;;;;;;;5010039;28;20025;-72
2021/12/04 00:07:28;;;;;;;384.52;287.63;;;;;;;;;;5007696;28;20034;-72
2021/12/04 00:09:58;;;;;;;332.77;276.00;;;;;;;;;;5005286;28;20042;-73
2021/12/04 00:12:24;;;;;;;343.15;280.80;;;;;;;;;;5006110;28;20490;-73
2021/12/04 00:14:51;;;;;;;441.00;290.98;;;;;;;;;;5003374;28;20510;-73
2021/12/04 00:17:17;;;;;;;485.80;302.63;;;;;;;;;;5124265;22;20049;-74
2021/12/04 00:19:43;;;;;;;614.78;323.58;;;;;;;;;;5005399;28;20105;-74
2021/12/04 00:22:09;;;;;;;235.00;212.65;;;;;;;;;;4997757;28;20421;-74
2021/12/04 00:24:36;;;;;;;86.35;64.38;;;;;;;;;;5009803;28;20026;-74
2021/12/04 00:27:02;;;;;;;112.95;103.13;;;;;;;;;;5016831;28;20033;-74
2021/12/04 00:29:28;;;;;;;93.50;66.05;;;;;;;;;;5008949;28;20037;-75
2021/12/04 00:32:19;;;;;;;94.60;78.28;;;;;;;;;;5009107;28;20107;-75
2021/12/04 00:34:47;;;;;;;315.23;253.00;;;;;;;;;;5009933;28;20079;-74
2021/12/04 00:38:07;;;;;;;95.28;84.45;;;;;;;;;;5012748;28;20030;-74
2021/12/04 00:51:18;;;;;;;268.42;240.40;;;;;;;;;;5011648;28;20040;-74
2021/12/04 00:53:44;;;;;;;355.67;261.83;;;;;;;;;;5014181;28;20569;-75
2021/12/04 00:56:10;;;;;;;276.38;252.57;;;;;;;;;;5007394;28;20728;-74
2021/12/04 00:58:36;;;;;;;297.20;267.75;;;;;;;;;;5010498;28;20036;-74
2021/12/04 01:01:02;;;;;;;400.58;287.17;;;;;;;;;;5012607;28;20013;-76
2021/12/04 01:03:28;;;;;;;300.25;265.73;;;;;;;;;;5012315;28;20104;-74
2021/12/04 01:05:54;;;;;;;405.33;292.52;;;;;;;;;;5014394;28;20022;-74
2021/12/04 01:08:21;;;;;;;262.13;237.18;;;;;;;;;;5010847;28;20030;-75
2021/12/04 01:10:47;;;;;;;383.98;293.70;;;;;;;;;;5012371;28;20033;-74
2021/12/04 01:13:13;;;;;;;303.13;272.58;;;;;;;;;;5001450;28;20025;-74
2021/12/04 01:15:43;;;;;;;253.07;227.38;;;;;;;;;;5005729;28;20117;-73
2021/12/04 01:18:10;;;;;;;88.55;55.92;;;;;;;;;;4994741;28;20042;-74
2021/12/04 01:20:36;;;;;;;97.28;61.08;;;;;;;;;;5004800;28;20034;-74
2021/12/04 01:23:02;;;;;;;103.60;63.67;;;;;;;;;;5012088;28;20577;-73
2021/12/04 01:25:28;;;;;;;223.00;202.25;;;;;;;;;;5003908;28;20161;-75
2021/12/04 01:27:54;;;;;;;397.05;295.92;;;;;;;;;;5010496;28;20088;-73
2021/12/04 01:30:20;;;;;;;412.55;302.05;;;;;;;;;;5012703;28;20446;-74
2021/12/04 01:32:47;;;;;;;403.83;297.05;;;;;;;;;;5012636;28;20121;-74
2021/12/04 01:35:13;;;;;;;97.35;69.88;;;;;;;;;;5005649;28;20030;-74
2021/12/04 01:37:39;;;;;;;151.30;135.45;;;;;;;;;;5001010;28;20030;-74
2021/12/04 01:40:05;;;;;;;223.85;203.38;;;;;;;;;;5010173;28;20029;-74
2021/12/04 01:42:35;;;;;;;518.50;326.80;;;;;;;;;;5012240;28;20433;-73
2021/12/04 01:45:01;;;;;;;593.30;347.00;;;;;;;;;;5006026;28;20072;-74
2021/12/04 01:47:27;;;;;;;222.93;198.73;;;;;;;;;;5008830;28;20023;-74
2021/12/04 01:49:55;;;;;;;178.55;161.20;;;;;;;;;;5011106;28;20037;-73
2021/12/04 01:52:21;;;;;;;129.70;104.88;;;;;;;;;;5011599;28;20424;-74
2021/12/04 01:54:50;;;;;;;374.25;312.08;;;;;;;;;;5011694;28;20030;-74
2021/12/04 01:57:16;;;;;;;81.88;60.33;;;;;;;;;;5002727;28;20037;-74
2021/12/04 01:59:42;;;;;;;226.02;203.80;;;;;;;;;;5011175;28;20065;-74
2021/12/04 02:02:08;;;;;;;93.82;61.72;;;;;;;;;;5002983;28;20156;-73
2021/12/04 02:04:34;;;;;;;100.72;59.08;;;;;;;;;;5003716;28;20022;-73
2021/12/04 02:07:03;;;;;;;79.70;53.50;;;;;;;;;;5023910;28;20022;-74
2021/12/04 02:09:30;;;;;;;90.70;55.88;;;;;;;;;;5011117;28;20080;-73
2021/12/04 02:11:56;;;;;;;106.15;56.95;;;;;;;;;;5009844;28;20022;-74
2021/12/04 02:14:22;;;;;;;85.10;51.35;;;;;;;;;;5009330;28;20121;-74
2021/12/04 02:16:49;;;;;;;88.60;65.10;;;;;;;;;;5001881;28;20050;-74
2021/12/04 02:19:15;;;;;;;83.40;57.55;;;;;;;;;;5008539;28;20022;-74
2021/12/04 02:21:41;;;;;;;92.57;56.58;;;;;;;;;;5012084;28;20030;-74
2021/12/04 02:24:07;;;;;;;88.38;55.22;;;;;;;;;;5017691;28;20030;-74
2021/12/04 02:26:34;;;;;;;88.90;62.38;;;;;;;;;;5029063;28;20025;-74
2021/12/04 02:29:00;;;;;;;90.70;76.25;;;;;;;;;;5008066;28;20030;-74
2021/12/04 02:31:26;;;;;;;81.10;71.53;;;;;;;;;;5010540;28;20041;-74
2021/12/04 02:33:53;;;;;;;72.68;65.78;;;;;;;;;;5005092;28;20036;-74
2021/12/04 02:36:19;;;;;;;122.45;111.85;;;;;;;;;;5012699;28;20598;-74
2021/12/04 02:38:51;;;;;;;176.57;160.02;;;;;;;;;;5008802;28;20037;-73
2021/12/04 02:41:18;;;;;;;269.10;242.05;;;;;;;;;;5011319;28;20030;-74
2021/12/04 02:43:45;;;;;;;244.63;223.00;;;;;;;;;;5009399;28;20041;-74
2021/12/04 02:46:11;;;;;;;230.38;208.82;;;;;;;;;;5012008;28;20022;-74
2021/12/04 02:48:37;;;;;;;192.52;173.15;;;;;;;;;;5010450;28;20139;-74
2021/12/04 02:51:03;;;;;;;271.77;244.05;;;;;;;;;;5010017;28;20033;-74
2021/12/04 02:53:30;;;;;;;182.02;165.45;;;;;;;;;;5002634;28;20489;-73
2021/12/04 02:55:56;;;;;;;111.43;99.93;;;;;;;;;;5011477;28;20034;-74
2021/12/04 02:58:22;;;;;;;162.30;145.88;;;;;;;;;;4995728;28;20158;-74
2021/12/04 03:00:50;;;;;;;204.57;186.63;;;;;;;;;;5007643;28;20015;-74
2021/12/04 03:03:18;;;;;;;183.05;165.73;;;;;;;;;;5007911;28;20040;-74
2021/12/04 03:05:47;;;;;;;89.45;59.28;;;;;;;;;;5006559;28;20017;-74
2021/12/04 03:08:13;;;;;;;98.43;67.63;;;;;;;;;;5006002;28;20037;-74
2021/12/04 03:10:39;;;;;;;151.82;138.35;;;;;;;;;;5009177;28;20026;-74
2021/12/04 03:13:08;;;;;;;61.03;56.10;;;;;;;;;;4994794;28;20022;-74
2021/12/04 03:15:37;;;;;;;241.30;217.82;;;;;;;;;;5015429;28;20408;-73
2021/12/04 03:18:03;;;;;;;226.10;202.95;;;;;;;;;;5008198;28;20048;-73
2021/12/04 03:20:31;;;;;;;119.35;107.57;;;;;;;;;;5009813;28;20021;-73
2021/12/04 03:23:00;;;;;;;53.45;40.85;;;;;;;;;;5006544;28;20038;-75
2021/12/04 03:25:26;;;;;;;82.50;50.10;;;;;;;;;;5004545;28;20102;-74
2021/12/04 03:27:53;;;;;;;82.03;49.05;;;;;;;;;;5014650;28;20034;-74
2021/12/04 03:30:46;;;;;;;85.57;53.30;;;;;;;;;;5011098;28;20515;-74
2021/12/04 03:41:07;;;;;;;79.43;55.53;;;;;;;;;;5009712;28;20028;-73
2021/12/04 03:43:33;;;;;;;90.88;54.95;;;;;;;;;;4996816;28;20388;-73
2021/12/04 03:46:03;;;;;;;85.80;52.58;;;;;;;;;;5003958;28;20018;-73
2021/12/04 03:48:50;;;;;;;91.82;54.05;;;;;;;;;;5004619;28;20025;-73
2021/12/04 03:51:16;;;;;;;91.10;52.25;;;;;;;;;;4995402;28;20026;-74
2021/12/04 03:53:42;;;;;;;101.30;57.03;;;;;;;;;;5010352;28;20046;-73
2021/12/04 03:56:10;;;;;;;179.80;163.10;;;;;;;;;;4996588;28;20027;-73
2021/12/04 03:58:36;;;;;;;171.45;153.45;;;;;;;;;;5004650;28;20511;-75
2021/12/04 04:01:03;;;;;;;143.23;128.18;;;;;;;;;;5006323;28;20029;-74
2021/12/04 04:03:29;;;;;;;263.45;235.45;;;;;;;;;;5006520;28;20018;-73
2021/12/04 04:05:55;;;;;;;356.33;298.52;;;;;;;;;;5008979;28;20066;-74
2021/12/04 04:08:22;;;;;;;417.80;312.83;;;;;;;;;;5006388;28;20054;-74
2021/12/04 04:10:50;;;;;;;487.95;314.45;;;;;;;;;;5009013;28;20030;-74
2021/12/04 04:13:16;;;;;;;391.02;302.15;;;;;;;;;;5007706;28;20021;-74
2021/12/04 04:15:42;;;;;;;188.43;164.20;;;;;;;;;;5008304;28;20036;-74
2021/12/04 04:18:08;;;;;;;340.90;289.48;;;;;;;;;;4998105;28;20501;-74
2021/12/04 04:20:35;;;;;;;393.05;309.92;;;;;;;;;;5008935;28;20072;-73
2021/12/04 04:23:01;;;;;;;341.10;264.23;;;;;;;;;;5006754;28;20370;-74
2021/12/04 04:25:27;;;;;;;375.17;290.88;;;;;;;;;;5010562;28;20443;-74
2021/12/04 04:27:53;;;;;;;234.00;209.65;;;;;;;;;;5016750;28;20037;-73
2021/12/04 04:30:20;;;;;;;85.60;49.95;;;;;;;;;;5010152;28;20022;-73
2021/12/04 04:32:48;;;;;;;327.20;292.15;;;;;;;;;;4995463;28;20022;-73
2021/12/04 04:35:17;;;;;;;420.50;290.08;;;;;;;;;;5017276;28;20029;-75
2021/12/04 05:02:40;;;;;;;95.95;47.03;;;;;;;;;;5009255;28;20600;-73
2021/12/04 05:13:05;;;;;;;102.95;49.78;;;;;;;;;;5000732;28;20069;-73
2021/12/04 05:21:03;;;;;;;96.50;51.22;;;;;;;;;;5012038;28;20037;-73
2021/12/04 05:23:30;;;;;;;94.95;49.35;;;;;;;;;;5011382;28;20081;-73
2021/12/04 05:25:56;;;;;;;98.25;51.00;;;;;;;;;;5004217;28;21997;-73
2021/12/04 05:28:22;;;;;;;89.18;48.97;;;;;;;;;;5008460;28;20102;-74
2021/12/04 05:30:49;;;;;;;93.63;51.72;;;;;;;;;;5004473;28;20026;-73
2021/12/04 05:33:15;;;;;;;114.57;53.75;;;;;;;;;;5004608;28;20504;-73
2021/12/04 05:35:41;;;;;;;95.15;51.33;;;;;;;;;;5005162;28;20033;-74
2021/12/04 05:38:07;;;;;;;93.65;49.70;;;;;;;;;;5008766;28;20034;-73
2021/12/04 05:40:33;;;;;;;87.50;47.00;;;;;;;;;;5012499;28;20022;-73
2021/12/04 05:43:03;;;;;;;92.07;50.25;;;;;;;;;;5001785;28;20039;-74
2021/12/04 05:45:37;;;;;;;303.83;264.95;;;;;;;;;;5011519;28;20515;-74
2021/12/04 05:48:11;;;;;;;102.50;77.80;;;;;;;;;;5001704;28;20076;-75
2021/12/04 05:50:56;;;;;;;403.02;297.92;;;;;;;;;;5002108;28;20044;-74
2021/12/04 05:53:25;;;;;;;94.18;51.40;;;;;;;;;;5009543;28;20404;-73
2021/12/04 05:55:53;;;;;;;92.57;53.78;;;;;;;;;;5012429;28;20028;-74
2021/12/04 05:58:20;;;;;;;98.45;57.10;;;;;;;;;;5000568;28;20042;-73
2021/12/04 06:00:46;;;;;;;98.10;48.22;;;;;;;;;;5003600;28;20034;-73
2021/12/04 06:03:12;;;;;;;100.22;57.55;;;;;;;;;;5009937;28;20022;-75
2021/12/04 06:05:38;;;;;;;98.10;50.78;;;;;;;;;;5009937;28;20034;-73
2021/12/04 06:08:04;;;;;;;116.43;81.25;;;;;;;;;;5009879;28;20060;-74
2021/12/04 06:10:30;;;;;;;304.60;204.50;;;;;;;;;;5011535;28;20092;-73
2021/12/04 06:12:56;;;;;;;135.57;110.65;;;;;;;;;;5008849;28;20046;-73
2021/12/04 06:15:23;;;;;;;299.83;264.83;;;;;;;;;;5002669;28;20515;-74
2021/12/04 06:17:51;;;;;;;235.68;210.13;;;;;;;;;;5003795;28;20656;-73
2021/12/04 06:23:02;;;;;;;95.05;51.58;;;;;;;;;;5006781;28;20083;-73
2021/12/04 06:25:28;;;;;;;89.28;46.40;;;;;;;;;;5002346;28;20413;-74
2021/12/04 06:27:55;;;;;;;98.03;48.63;;;;;;;;;;5002584;28;20638;-73
2021/12/04 06:30:21;;;;;;;88.30;46.70;;;;;;;;;;5004423;28;20038;-74
2021/12/04 06:32:49;;;;;;;105.22;52.17;;;;;;;;;;5002076;28;20412;-73
2021/12/04 06:35:16;;;;;;;235.07;209.50;;;;;;;;;;5011938;28;20029;-74
2021/12/04 06:37:42;;;;;;;91.88;51.53;;;;;;;;;;5025635;28;20122;-74
2021/12/04 06:40:13;;;;;;;98.82;51.47;;;;;;;;;;5003823;28;20030;-73
2021/12/04 06:42:40;;;;;;;113.88;77.45;;;;;;;;;;5002036;28;20404;-73
2021/12/04 06:45:06;;;;;;;90.10;46.33;;;;;;;;;;5003292;28;20026;-74
2021/12/04 06:47:33;;;;;;;103.30;55.85;;;;;;;;;;4999721;28;20105;-73
2021/12/04 06:50:07;;;;;;;93.90;47.00;;;;;;;;;;4994712;28;20022;-73
2021/12/04 06:52:33;;;;;;;98.35;47.33;;;;;;;;;;5010025;28;20033;-73
2021/12/04 06:55:01;;;;;;;73.82;41.55;;;;;;;;;;5007348;28;20534;-73
2021/12/04 06:57:29;;;;;;;82.70;47.58;;;;;;;;;;5003496;28;21664;-74
2021/12/04 06:59:56;;;;;;;76.07;45.50;;;;;;;;;;5009144;28;20389;-73
2021/12/04 07:02:22;;;;;;;85.63;45.97;;;;;;;;;;5007483;28;20014;-73
2021/12/04 07:04:49;;;;;;;110.50;96.97;;;;;;;;;;5004014;28;20029;-73
2021/12/04 07:07:15;;;;;;;81.68;46.78;;;;;;;;;;4995483;28;20018;-73
2021/12/04 07:09:42;;;;;;;89.30;46.80;;;;;;;;;;4998286;28;20077;-73
2021/12/04 07:12:08;;;;;;;105.15;48.88;;;;;;;;;;5000703;28;20656;-74
2021/12/04 07:14:34;;;;;;;225.95;165.38;;;;;;;;;;5008865;28;20377;-73
2021/12/04 07:17:02;;;;;;;121.53;110.07;;;;;;;;;;4995890;28;20047;-73
2021/12/04 07:19:28;;;;;;;92.75;48.63;;;;;;;;;;4993344;28;20022;-73
2021/12/04 07:21:54;;;;;;;96.80;45.35;;;;;;;;;;5008559;28;20034;-72
2021/12/04 07:24:21;;;;;;;77.30;42.95;;;;;;;;;;5006578;28;20018;-73
2021/12/04 07:26:47;;;;;;;81.85;49.15;;;;;;;;;;5000548;28;20045;-75
2021/12/04 07:29:13;;;;;;;54.70;38.17;;;;;;;;;;5003096;28;20420;-73
2021/12/04 07:31:39;;;;;;;72.50;44.17;;;;;;;;;;5009255;28;20087;-73
2021/12/04 07:34:06;;;;;;;54.85;39.35;;;;;;;;;;5005527;28;20091;-73
2021/12/04 07:36:32;;;;;;;82.72;46.35;;;;;;;;;;5000727;28;20059;-73
2021/12/04 07:39:01;;;;;;;74.90;45.03;;;;;;;;;;5002976;28;20030;-73
2021/12/04 07:41:27;;;;;;;68.82;43.10;;;;;;;;;;5007573;28;20037;-73
2021/12/04 07:43:54;;;;;;;82.70;45.30;;;;;;;;;;5002465;28;20021;-74
2021/12/04 07:46:20;;;;;;;88.45;42.13;;;;;;;;;;5007929;28;20033;-73
2021/12/04 07:48:46;;;;;;;87.95;79.68;;;;;;;;;;5010011;28;20087;-73
2021/12/04 07:51:12;;;;;;;93.15;48.13;;;;;;;;;;5011192;28;20487;-73
2021/12/04 07:53:38;;;;;;;75.05;42.70;;;;;;;;;;5010419;28;20026;-73
2021/12/04 07:56:06;;;;;;;96.15;49.13;;;;;;;;;;5008077;28;20392;-74
2021/12/04 07:58:33;;;;;;;79.72;44.17;;;;;;;;;;5003056;28;20019;-73
2021/12/04 08:00:59;;;;;;;100.28;81.43;;;;;;;;;;5018042;28;20065;-73
2021/12/04 08:03:25;;;;;;;89.55;47.20;;;;;;;;;;5006975;28;20026;-73
2021/12/04 08:05:51;;;;;;;89.68;44.10;;;;;;;;;;5004138;28;20029;-74
2021/12/04 08:08:17;;;;;;;209.75;188.82;;;;;;;;;;4999954;28;20153;-73
2021/12/04 08:10:43;;;;;;;88.72;44.47;;;;;;;;;;5000604;28;20034;-73
2021/12/04 08:13:09;;;;;;;88.65;47.97;;;;;;;;;;5008524;28;20057;-73
2021/12/04 08:15:36;;;;;;;104.22;47.65;;;;;;;;;;5016887;28;20041;-73
2021/12/04 08:18:03;;;;;;;77.45;43.20;;;;;;;;;;5007510;28;20398;-73
2021/12/04 08:20:29;;;;;;;163.93;146.43;;;;;;;;;;5000523;28;20029;-73
2021/12/04 08:22:55;;;;;;;77.72;41.05;;;;;;;;;;5009834;28;20022;-73
2021/12/04 08:25:22;;;;;;;79.93;42.50;;;;;;;;;;5006648;28;20030;-73
2021/12/04 08:27:49;;;;;;;73.18;40.47;;;;;;;;;;5005671;28;20049;-72
2021/12/04 08:30:17;;;;;;;78.78;42.17;;;;;;;;;;5010459;28;20022;-73
2021/12/04 08:32:43;;;;;;;48.00;33.78;;;;;;;;;;5002361;28;20033;-73
2021/12/04 08:35:10;;;;;;;81.88;39.15;;;;;;;;;;5004135;28;20022;-73
2021/12/04 08:37:36;;;;;;;81.97;40.08;;;;;;;;;;5008762;28;20040;-73
2021/12/04 08:40:09;;;;;;;70.35;39.25;;;;;;;;;;5010332;28;20456;-73
2021/12/04 08:42:35;;;;;;;83.15;42.25;;;;;;;;;;5006507;28;20539;-73
2021/12/04 08:45:01;;;;;;;79.20;40.10;;;;;;;;;;5013048;28;20442;-73
2021/12/04 08:47:27;;;;;;;79.65;40.33;;;;;;;;;;5004259;28;20037;-72
2021/12/04 08:49:53;;;;;;;78.95;41.28;;;;;;;;;;5003735;28;20262;-73
2021/12/04 08:52:19;;;;;;;76.57;40.42;;;;;;;;;;5012674;28;20037;-73
2021/12/04 08:54:46;;;;;;;81.63;39.08;;;;;;;;;;5005366;28;20392;-73
2021/12/04 08:57:12;;;;;;;85.43;41.78;;;;;;;;;;5004526;28;20049;-73
2021/12/04 08:59:39;;;;;;;70.28;39.05;;;;;;;;;;5010430;28;20026;-73
2021/12/04 09:02:05;;;;;;;93.28;43.22;;;;;;;;;;5008892;28;20014;-73
2021/12/04 09:04:35;;;;;;;151.68;130.48;;;;;;;;;;5014660;28;20072;-74
2021/12/04 09:07:01;;;;;;;93.07;41.67;;;;;;;;;;5008660;28;20026;-73
2021/12/04 09:09:28;;;;;;;77.10;39.35;;;;;;;;;;5002927;28;20451;-72
2021/12/04 09:12:00;;;;;;;90.03;42.28;;;;;;;;;;5017548;28;20411;-73
2021/12/04 09:14:26;;;;;;;;;;;;;;;;;;5005587;28;20547;-73
2021/12/04 09:16:53;;;;;;;58.03;35.45;;;;;;;;;;5010925;28;20078;-73
2021/12/04 09:19:19;;;;;;;119.65;44.97;;;;;;;;;;5010020;28;20034;-72
2021/12/04 09:21:46;;;;;;;76.75;41.15;;;;;;;;;;5007671;28;20019;-73
2021/12/04 09:24:17;;;;;;;97.53;42.33;;;;;;;;;;5006112;28;20055;-73
2021/12/04 09:35:11;;;;;;;78.38;43.80;;;;;;;;;;5006780;28;20516;-73
2021/12/04 09:59:40;;;;;;;201.93;127.15;;;;;;;;;;5001448;28;20517;-74
2021/12/04 10:20:31;;;;;;;80.13;40.42;;;;;;;;;;5005119;28;20034;-74
2021/12/04 10:33:49;;;;;;;64.75;31.58;;;;;;;;;;5005416;28;20033;-72
2021/12/04 10:36:26;;;;;;;99.85;80.53;;;;;;;;;;5007296;28;20030;-72
2021/12/04 10:38:52;;;;;;;82.32;40.45;;;;;;;;;;5003817;28;20018;-72
2021/12/04 10:41:27;;;;;;;73.43;38.03;;;;;;;;;;4992996;28;20054;-72
2021/12/04 10:43:53;;;;;;;82.25;41.33;;;;;;;;;;4997997;28;20100;-72
2021/12/04 10:46:22;;;;;;;81.63;40.72;;;;;;;;;;4998042;28;20033;-72
2021/12/04 10:48:51;;;;;;;75.45;44.80;;;;;;;;;;5008333;28;20022;-72
2021/12/04 10:53:49;;;;;;;65.18;38.20;;;;;;;;;;5001274;28;20027;-72
2021/12/04 11:07:21;;;;;;;68.53;40.75;;;;;;;;;;5001863;28;20040;-72
2021/12/04 11:45:02;;;;;;;32.03;28.90;;;;;;;;;;5004946;28;20034;-69
2021/12/04 11:47:39;;;;;;;42.20;38.75;;;;;;;;;;4991140;28;20089;-70
2021/12/04 11:50:25;;;;;;;68.03;62.33;;;;;;;;;;5004514;28;20400;-70
2021/12/04 11:52:53;;;;;;;31.95;29.25;;;;;;;;;;4990917;28;20024;-70
2021/12/04 11:55:20;;;;;;;37.75;34.00;;;;;;;;;;5003644;28;20030;-69
2021/12/04 11:57:48;;;;;;;34.10;30.90;;;;;;;;;;4999668;28;20114;-71
2021/12/04 12:00:25;;;;;;;156.50;140.15;;;;;;;;;;5005689;28;20033;-70
2021/12/04 12:02:52;;;;;;;55.42;49.80;;;;;;;;;;5000351;28;20018;-70
2021/12/04 12:05:20;;;;;;;87.75;80.93;;;;;;;;;;5003687;28;20022;-70
2021/12/04 12:07:56;;;;;;;33.45;30.05;;;;;;;;;;4992550;28;20429;-71
2021/12/04 12:10:26;;;;;;;31.20;28.92;;;;;;;;;;5006255;28;20160;-71
2021/12/04 12:12:52;;;;;;;74.90;69.75;;;;;;;;;;5004293;28;20026;-70
2021/12/04 12:15:27;;;;;;;42.30;39.83;;;;;;;;;;5007552;28;20033;-71
2021/12/04 12:17:54;;;;;;;32.15;29.98;;;;;;;;;;5002736;28;20200;-71
2021/12/04 12:20:35;;;;;;;33.55;31.13;;;;;;;;;;5006578;28;20493;-71
2021/12/04 12:23:03;;;;;;;33.50;30.45;;;;;;;;;;5008591;28;20030;-71
2021/12/04 12:25:52;;;;;;;40.45;38.03;;;;;;;;;;5004396;28;20553;-70
2021/12/04 12:36:30;;;;;;;56.90;52.22;;;;;;;;;;5008619;28;20120;-71
2021/12/04 12:38:58;;;;;;;37.58;34.03;;;;;;;;;;5014869;28;20030;-70
2021/12/04 12:41:26;;;;;;;41.55;36.75;;;;;;;;;;5011838;28;20122;-70
2021/12/04 12:43:59;;;;;;;255.32;229.27;;;;;;;;;;5007334;28;20033;-73
2021/12/04 12:46:40;;;;;;;398.03;284.27;;;;;;;;;;5000720;28;20042;-71
2021/12/04 12:49:16;;;;;;;395.05;354.23;;;;;;;;;;5008167;28;20612;-70
2021/12/04 12:51:43;;;;;;;245.93;174.30;;;;;;;;;;4996678;28;20033;-71
2021/12/04 12:54:10;;;;;;;43.10;40.03;;;;;;;;;;5010912;28;20112;-71
2021/12/04 12:56:37;;;;;;;44.65;41.30;;;;;;;;;;5008605;28;20104;-72
2021/12/04 12:59:21;;;;;;;148.55;137.68;;;;;;;;;;5005514;28;20032;-72
2021/12/04 13:12:56;;;;;;;207.23;191.27;;;;;;;;;;5006820;28;20064;-71
2021/12/04 13:15:37;;;;;;;258.42;237.40;;;;;;;;;;5006943;28;20377;-71
2021/12/04 13:18:31;;;;;;;441.10;313.45;;;;;;;;;;5002499;28;20137;-71
2021/12/04 13:21:09;;;;;;;444.77;389.73;;;;;;;;;;5004997;28;20037;-70
2021/12/04 13:23:35;;;;;;;59.47;55.55;;;;;;;;;;5005366;28;20044;-70
2021/12/04 13:26:12;;;;;;;438.27;361.83;;;;;;;;;;5002909;28;20377;-71
2021/12/04 13:28:40;;;;;;;690.60;436.97;;;;;;;;;;5003983;28;20412;-72
2021/12/04 13:31:06;;;;;;;667.25;428.05;;;;;;;;;;5009519;28;20092;-71
2021/12/04 13:33:34;;;;;;;376.52;312.85;;;;;;;;;;5007380;28;20080;-71
2021/12/04 13:36:00;;;;;;;592.53;399.45;;;;;;;;;;5018414;28;20051;-71
2021/12/04 13:38:27;;;;;;;706.65;405.13;;;;;;;;;;5000945;28;20378;-72
2021/12/04 13:40:55;;;;;;;618.60;391.45;;;;;;;;;;5000790;28;20512;-71
2021/12/04 13:43:21;;;;;;;700.30;400.52;;;;;;;;;;5002088;28;20033;-72
2021/12/04 13:45:55;;;;;;;681.20;394.98;;;;;;;;;;5005604;28;20029;-72
2021/12/04 13:48:22;;;;;;;728.75;445.58;;;;;;;;;;5003471;28;20022;-72
2021/12/04 13:50:48;;;;;;;632.65;383.58;;;;;;;;;;5007932;28;20351;-72
2021/12/04 13:53:17;;;;;;;602.45;386.05;;;;;;;;;;5006841;28;20045;-72
2021/12/04 13:55:44;;;;;;;633.40;405.83;;;;;;;;;;5009631;28;20031;-72
2021/12/04 13:58:10;;;;;;;739.58;462.50;;;;;;;;;;5007528;28;20373;-72
2021/12/04 14:00:36;;;;;;;704.58;404.52;;;;;;;;;;4995072;28;20046;-73
2021/12/04 14:03:03;;;;;;;739.92;444.35;;;;;;;;;;5003295;28;20573;-72
2021/12/04 14:05:29;;;;;;;704.65;435.98;;;;;;;;;;5007603;28;20595;-72
2021/12/04 14:07:56;;;;;;;676.53;421.88;;;;;;;;;;5003215;28;20277;-72
2021/12/04 14:10:33;;;;;;;439.98;395.50;;;;;;;;;;5005929;28;20053;-72
2021/12/04 14:13:00;;;;;;;507.83;389.13;;;;;;;;;;5004752;28;20176;-72
2021/12/04 14:15:27;;;;;;;372.77;335.83;;;;;;;;;;5006437;28;20107;-72
2021/12/04 14:18:01;;;;;;;100.25;93.60;;;;;;;;;;4998296;28;20048;-74
2021/12/04 14:20:27;;;;;;;302.08;277.13;;;;;;;;;;5008609;28;20040;-72
2021/12/04 14:22:54;;;;;;;303.08;281.90;;;;;;;;;;5004863;28;20503;-72
2021/12/04 14:25:21;;;;;;;83.68;77.88;;;;;;;;;;5005317;28;20030;-73
2021/12/04 14:27:48;;;;;;;118.38;109.93;;;;;;;;;;5003066;28;20044;-71
2021/12/04 14:30:14;;;;;;;286.77;267.27;;;;;;;;;;5006829;28;20030;-71
2021/12/04 14:32:42;;;;;;;325.60;300.40;;;;;;;;;;4994905;28;20042;-72
2021/12/04 14:35:10;;;;;;;391.63;350.02;;;;;;;;;;5002652;28;20061;-72
2021/12/04 14:37:38;;;;;;;389.70;350.30;;;;;;;;;;5002544;28;20031;-71
2021/12/04 14:40:06;;;;;;;355.77;322.92;;;;;;;;;;4999975;28;20022;-71
2021/12/04 14:42:32;;;;;;;280.27;261.65;;;;;;;;;;5008134;28;20022;-71
2021/12/04 14:45:00;;;;;;;271.95;248.35;;;;;;;;;;5019369;28;20030;-72
2021/12/04 14:47:42;;;;;;;350.65;321.65;;;;;;;;;;5003146;28;20135;-71
2021/12/04 14:50:09;;;;;;;211.80;197.95;;;;;;;;;;5019890;28;20034;-71
2021/12/04 14:52:37;;;;;;;70.15;64.90;;;;;;;;;;5006328;28;20523;-72
2021/12/04 14:55:32;;;;;;;73.32;68.72;;;;;;;;;;5009713;28;20028;-71
2021/12/04 14:57:59;;;;;;;77.53;73.03;;;;;;;;;;4989152;28;20057;-72
2021/12/04 15:00:27;;;;;;;74.30;70.25;;;;;;;;;;5003001;28;20014;-72
2021/12/04 15:02:57;;;;;;;194.80;182.55;;;;;;;;;;5004739;28;20026;-72
2021/12/04 15:08:07;;;;;;;80.63;74.95;;;;;;;;;;5049933;22;20453;-71
2021/12/04 15:10:34;;;;;;;76.03;71.07;;;;;;;;;;5028089;28;20116;-71
2021/12/04 15:13:00;;;;;;;73.57;69.25;;;;;;;;;;5022396;28;20034;-71
2021/12/04 15:15:30;;;;;;;232.23;215.20;;;;;;;;;;5018007;28;20033;-71
2021/12/04 15:17:58;;;;;;;256.25;241.27;;;;;;;;;;5021833;28;20021;-71
2021/12/04 15:20:31;;;;;;;347.45;320.77;;;;;;;;;;5025973;28;20021;-71
2021/12/04 15:22:59;;;;;;;343.13;314.40;;;;;;;;;;5018864;28;20573;-71
2021/12/04 15:25:30;;;;;;;280.23;262.95;;;;;;;;;;5039333;28;20036;-71
2021/12/04 15:27:56;;;;;;;359.87;329.47;;;;;;;;;;5008561;28;20029;-70
2021/12/04 15:30:23;;;;;;;387.05;347.77;;;;;;;;;;5024139;28;20033;-71
2021/12/04 15:32:49;;;;;;;423.80;348.05;;;;;;;;;;5024757;28;20029;-71
2021/12/04 15:35:36;;;;;;;403.98;349.00;;;;;;;;;;5018074;28;20033;-71
2021/12/04 15:38:09;;;;;;;387.45;340.83;;;;;;;;;;5019948;28;20041;-71
2021/12/04 15:40:58;;;;;;;376.65;342.92;;;;;;;;;;5020027;28;20037;-71
2021/12/04 15:43:33;;;;;;;382.20;345.80;;;;;;;;;;5015649;28;20025;-70
2021/12/04 15:54:26;;;;;;;347.23;302.08;;;;;;;;;;5017326;28;20053;-71
2021/12/04 15:56:55;;;;;;;462.63;347.02;;;;;;;;;;5022345;28;20025;-71
2021/12/04 15:59:23;;;;;;;354.85;316.02;;;;;;;;;;5021015;28;20021;-71
2021/12/04 16:01:52;;;;;;;140.40;126.57;;;;;;;;;;5015959;28;20040;-71
2021/12/04 16:04:23;;;;;;;109.18;102.10;;;;;;;;;;5020081;28;20056;-71
2021/12/04 16:06:49;;;;;;;198.38;183.45;;;;;;;;;;5017924;28;20059;-70
2021/12/04 16:09:23;;;;;;;193.15;177.75;;;;;;;;;;5022926;28;20390;-71
2021/12/04 16:11:49;;;;;;;566.05;358.92;;;;;;;;;;5021008;28;20033;-71
2021/12/04 16:14:18;;;;;;;289.30;268.80;;;;;;;;;;5015531;28;20037;-71
2021/12/04 16:16:44;;;;;;;379.23;338.92;;;;;;;;;;5017303;28;20028;-70
2021/12/04 16:19:10;;;;;;;610.35;363.23;;;;;;;;;;5021238;28;20076;-70
2021/12/04 16:21:37;;;;;;;576.45;357.40;;;;;;;;;;5012329;28;20988;-71
2021/12/04 16:24:07;;;;;;;369.83;286.65;;;;;;;;;;5013846;28;20025;-70
2021/12/04 16:26:35;;;;;;;628.42;382.88;;;;;;;;;;5019789;28;20034;-71
2021/12/04 16:31:53;;;;;;;700.78;380.83;;;;;;;;;;5020390;28;20033;-71
2021/12/04 16:37:45;;;;;;;656.47;388.10;;;;;;;;;;5022743;28;19921;-72
2021/12/04 16:39:42;;;;;;;616.75;380.20;;;;;;;;;;5012808;28;20418;-71
2021/12/04 16:42:10;;;;;;;722.90;423.40;;;;;;;;;;5019501;28;20030;-72
2021/12/04 16:44:37;;;;;;;651.15;391.48;;;;;;;;;;5017588;28;20032;-71
2021/12/04 16:47:05;;;;;;;635.10;383.75;;;;;;;;;;5018022;28;20481;-73
2021/12/04 16:49:31;;;;;;;730.55;424.02;;;;;;;;;;5022488;28;20056;-72
2021/12/04 16:55:18;;;;;;;718.13;395.27;;;;;;;;;;5015819;28;21775;-73
2021/12/04 16:57:51;;;;;;;709.80;410.50;;;;;;;;;;5015700;28;20513;-72
2021/12/04 17:00:19;;;;;;;514.42;346.40;;;;;;;;;;5025976;28;20108;-72
2021/12/04 17:02:45;;;;;;;383.13;301.48;;;;;;;;;;5027790;28;20461;-73
2021/12/04 17:05:13;;;;;;;112.38;104.97;;;;;;;;;;5021403;28;20033;-72
2021/12/04 17:07:39;;;;;;;222.38;203.68;;;;;;;;;;5018521;28;20048;-72
2021/12/04 17:10:08;;;;;;;69.75;64.82;;;;;;;;;;5028207;28;20393;-71
2021/12/04 17:12:36;;;;;;;78.30;73.45;;;;;;;;;;5016981;28;20026;-71
2021/12/04 17:15:03;;;;;;;72.78;67.80;;;;;;;;;;5019625;28;20038;-71
2021/12/04 17:17:31;;;;;;;73.88;69.55;;;;;;;;;;5035744;28;20052;-71
2021/12/04 17:20:00;;;;;;;100.97;93.95;;;;;;;;;;5023795;28;20059;-72
2021/12/04 17:22:26;;;;;;;77.55;72.65;;;;;;;;;;5018782;28;20375;-71
2021/12/04 17:24:52;;;;;;;145.38;135.27;;;;;;;;;;5029353;28;20497;-72
2021/12/04 17:27:18;;;;;;;210.82;175.88;;;;;;;;;;5027069;28;20087;-72
2021/12/04 17:29:47;;;;;;;507.58;345.73;;;;;;;;;;5028475;28;20036;-71
2021/12/04 17:32:13;;;;;;;369.88;277.25;;;;;;;;;;5030493;28;20030;-71
2021/12/04 17:34:40;;;;;;;467.98;359.98;;;;;;;;;;5025291;28;20037;-72
2021/12/04 17:37:06;;;;;;;196.52;180.02;;;;;;;;;;5026702;28;20521;-71